Gainesville, Georgia
Current Conditions -  °F | °C
As of 6:53 AM on Sunday 25 Jan 2015 (Local Time) from KGVL Reporting Station
Clear Clear  
Wind Chill: 24°   Ceiling: Unl
Heat Index: 32°   Visibility: 10mi
Dew Point: 28°   Wind: 9mph
Humidity: 85%   Direction: 250°WSW
Pressure: 29.94"   Gusts: NA
Location:  34.3°N, 83.82°W
Report Text: KGVL 251153Z AUTO 25008KT 10SM CLR 00/M02 A2994 RMK AO2 SLP141 T00001022 10028 20000 56000
Loading
Personal Weather Stations






























Interactive Weather Map New forecast layout! Learn more

10-Day Weather Forecast

Advertisements
Track Severe Weather on mobile